sensor_id;sensor_type;location;lat;lon;timestamp;P1;durP1;ratioP1;P2;durP2;ratioP2
14688;SDS011;7432;48.728;9.154;2022-10-16T00:01:35;3.23;;;2.97;;
14688;SDS011;7432;48.728;9.154;2022-10-16T00:04:03;3.50;;;3.20;;
14688;SDS011;7432;48.728;9.154;2022-10-16T00:06:30;5.37;;;3.47;;
14688;SDS011;7432;48.728;9.154;2022-10-16T00:08:57;3.00;;;2.80;;
14688;SDS011;7432;48.728;9.154;2022-10-16T00:11:24;3.10;;;2.90;;
14688;SDS011;7432;48.728;9.154;2022-10-16T00:13:55;4.40;;;3.27;;
14688;SDS011;7432;48.728;9.154;2022-10-16T00:16:23;4.97;;;3.00;;
14688;SDS011;7432;48.728;9.154;2022-10-16T00:18:49;3.60;;;3.30;;
14688;SDS011;7432;48.728;9.154;2022-10-16T00:21:18;3.60;;;3.30;;
14688;SDS011;7432;48.728;9.154;2022-10-16T00:23:46;3.30;;;3.10;;
14688;SDS011;7432;48.728;9.154;2022-10-16T00:26:14;3.87;;;3.07;;
14688;SDS011;7432;48.728;9.154;2022-10-16T00:28:41;2.90;;;2.67;;
14688;SDS011;7432;48.728;9.154;2022-10-16T00:31:08;4.23;;;3.20;;
14688;SDS011;7432;48.728;9.154;2022-10-16T00:33:37;3.20;;;3.00;;
14688;SDS011;7432;48.728;9.154;2022-10-16T00:36:05;4.03;;;3.10;;
14688;SDS011;7432;48.728;9.154;2022-10-16T00:38:33;3.80;;;2.70;;
14688;SDS011;7432;48.728;9.154;2022-10-16T00:41:00;4.43;;;3.00;;
14688;SDS011;7432;48.728;9.154;2022-10-16T00:43:34;2.93;;;2.73;;
14688;SDS011;7432;48.728;9.154;2022-10-16T00:46:04;5.20;;;2.80;;
14688;SDS011;7432;48.728;9.154;2022-10-16T00:48:36;3.40;;;3.10;;
14688;SDS011;7432;48.728;9.154;2022-10-16T00:51:02;3.27;;;3.00;;
14688;SDS011;7432;48.728;9.154;2022-10-16T00:53:31;4.00;;;3.40;;
14688;SDS011;7432;48.728;9.154;2022-10-16T00:56:00;3.37;;;3.00;;
14688;SDS011;7432;48.728;9.154;2022-10-16T00:58:27;3.27;;;3.07;;
14688;SDS011;7432;48.728;9.154;2022-10-16T01:00:53;3.20;;;2.90;;
14688;SDS011;7432;48.728;9.154;2022-10-16T01:03:24;3.20;;;3.00;;
14688;SDS011;7432;48.728;9.154;2022-10-16T01:05:55;3.60;;;2.87;;
14688;SDS011;7432;48.728;9.154;2022-10-16T01:08:30;3.10;;;2.90;;
14688;SDS011;7432;48.728;9.154;2022-10-16T01:11:07;5.77;;;3.17;;
14688;SDS011;7432;48.728;9.154;2022-10-16T01:13:45;3.13;;;2.93;;
14688;SDS011;7432;48.728;9.154;2022-10-16T01:16:15;4.37;;;2.97;;
14688;SDS011;7432;48.728;9.154;2022-10-16T01:18:50;3.70;;;2.70;;
14688;SDS011;7432;48.728;9.154;2022-10-16T01:21:21;3.10;;;2.90;;
14688;SDS011;7432;48.728;9.154;2022-10-16T01:23:51;3.10;;;2.90;;
14688;SDS011;7432;48.728;9.154;2022-10-16T01:26:34;3.10;;;2.80;;
14688;SDS011;7432;48.728;9.154;2022-10-16T01:29:09;2.80;;;2.60;;
14688;SDS011;7432;48.728;9.154;2022-10-16T01:31:41;4.77;;;2.70;;
14688;SDS011;7432;48.728;9.154;2022-10-16T01:34:15;3.03;;;2.83;;
14688;SDS011;7432;48.728;9.154;2022-10-16T01:36:45;4.43;;;2.93;;
14688;SDS011;7432;48.728;9.154;2022-10-16T01:39:15;3.17;;;2.97;;
14688;SDS011;7432;48.728;9.154;2022-10-16T01:41:48;4.33;;;3.00;;
14688;SDS011;7432;48.728;9.154;2022-10-16T01:44:19;4.57;;;3.00;;
14688;SDS011;7432;48.728;9.154;2022-10-16T01:46:50;3.83;;;3.23;;
14688;SDS011;7432;48.728;9.154;2022-10-16T01:49:19;4.03;;;3.30;;
14688;SDS011;7432;48.728;9.154;2022-10-16T01:51:48;4.37;;;3.27;;
14688;SDS011;7432;48.728;9.154;2022-10-16T01:54:18;3.67;;;2.83;;
14688;SDS011;7432;48.728;9.154;2022-10-16T01:56:46;4.10;;;3.27;;
14688;SDS011;7432;48.728;9.154;2022-10-16T01:59:15;2.87;;;2.67;;
14688;SDS011;7432;48.728;9.154;2022-10-16T02:01:46;5.13;;;3.10;;
14688;SDS011;7432;48.728;9.154;2022-10-16T02:04:18;4.63;;;3.30;;
14688;SDS011;7432;48.728;9.154;2022-10-16T02:06:49;3.07;;;2.87;;
14688;SDS011;7432;48.728;9.154;2022-10-16T02:09:16;5.73;;;2.90;;
14688;SDS011;7432;48.728;9.154;2022-10-16T02:11:42;3.63;;;3.33;;
14688;SDS011;7432;48.728;9.154;2022-10-16T02:14:09;2.93;;;2.73;;
14688;SDS011;7432;48.728;9.154;2022-10-16T02:16:36;3.40;;;3.10;;
14688;SDS011;7432;48.728;9.154;2022-10-16T02:19:06;3.93;;;3.57;;
14688;SDS011;7432;48.728;9.154;2022-10-16T02:21:35;3.53;;;3.23;;
14688;SDS011;7432;48.728;9.154;2022-10-16T02:24:08;5.73;;;3.10;;
14688;SDS011;7432;48.728;9.154;2022-10-16T02:26:40;4.27;;;2.60;;
14688;SDS011;7432;48.728;9.154;2022-10-16T02:29:11;4.53;;;3.20;;
14688;SDS011;7432;48.728;9.154;2022-10-16T02:31:41;3.20;;;3.00;;
14688;SDS011;7432;48.728;9.154;2022-10-16T02:34:14;4.90;;;2.93;;
14688;SDS011;7432;48.728;9.154;2022-10-16T02:36:42;3.17;;;2.97;;
14688;SDS011;7432;48.728;9.154;2022-10-16T02:39:10;2.90;;;2.63;;
14688;SDS011;7432;48.728;9.154;2022-10-16T02:41:37;4.10;;;3.00;;
14688;SDS011;7432;48.728;9.154;2022-10-16T02:44:04;2.53;;;2.33;;
14688;SDS011;7432;48.728;9.154;2022-10-16T02:46:30;3.20;;;3.00;;
14688;SDS011;7432;48.728;9.154;2022-10-16T02:48:57;3.00;;;2.80;;
14688;SDS011;7432;48.728;9.154;2022-10-16T02:51:25;3.57;;;2.67;;
14688;SDS011;7432;48.728;9.154;2022-10-16T02:53:51;2.77;;;2.57;;
14688;SDS011;7432;48.728;9.154;2022-10-16T02:56:17;3.67;;;3.07;;
14688;SDS011;7432;48.728;9.154;2022-10-16T02:58:44;3.27;;;3.00;;
14688;SDS011;7432;48.728;9.154;2022-10-16T03:01:10;3.03;;;2.80;;
14688;SDS011;7432;48.728;9.154;2022-10-16T03:03:37;3.90;;;2.63;;
14688;SDS011;7432;48.728;9.154;2022-10-16T03:06:04;2.80;;;2.60;;
14688;SDS011;7432;48.728;9.154;2022-10-16T03:08:32;3.60;;;2.83;;
14688;SDS011;7432;48.728;9.154;2022-10-16T03:10:58;3.00;;;2.80;;
14688;SDS011;7432;48.728;9.154;2022-10-16T03:13:25;3.20;;;3.00;;
14688;SDS011;7432;48.728;9.154;2022-10-16T03:15:51;3.00;;;2.80;;
14688;SDS011;7432;48.728;9.154;2022-10-16T03:18:17;3.77;;;3.40;;
14688;SDS011;7432;48.728;9.154;2022-10-16T03:20:44;3.07;;;2.87;;
14688;SDS011;7432;48.728;9.154;2022-10-16T03:23:10;4.00;;;3.00;;
14688;SDS011;7432;48.728;9.154;2022-10-16T03:25:38;3.23;;;3.03;;
14688;SDS011;7432;48.728;9.154;2022-10-16T03:28:05;4.47;;;3.10;;
14688;SDS011;7432;48.728;9.154;2022-10-16T03:30:32;3.00;;;2.80;;
14688;SDS011;7432;48.728;9.154;2022-10-16T03:32:58;4.50;;;3.40;;
14688;SDS011;7432;48.728;9.154;2022-10-16T03:35:24;3.27;;;3.07;;
14688;SDS011;7432;48.728;9.154;2022-10-16T03:37:51;3.83;;;3.40;;
14688;SDS011;7432;48.728;9.154;2022-10-16T03:40:17;3.60;;;3.30;;
14688;SDS011;7432;48.728;9.154;2022-10-16T03:42:45;4.97;;;3.40;;
14688;SDS011;7432;48.728;9.154;2022-10-16T03:45:12;3.37;;;3.07;;
14688;SDS011;7432;48.728;9.154;2022-10-16T03:47:38;4.00;;;3.07;;
14688;SDS011;7432;48.728;9.154;2022-10-16T03:50:05;3.57;;;3.30;;
14688;SDS011;7432;48.728;9.154;2022-10-16T03:52:32;3.47;;;3.17;;
14688;SDS011;7432;48.728;9.154;2022-10-16T03:54:58;3.33;;;3.13;;
14688;SDS011;7432;48.728;9.154;2022-10-16T03:57:25;4.03;;;3.00;;
14688;SDS011;7432;48.728;9.154;2022-10-16T03:59:53;3.30;;;3.00;;
14688;SDS011;7432;48.728;9.154;2022-10-16T04:02:19;3.50;;;2.90;;
14688;SDS011;7432;48.728;9.154;2022-10-16T04:04:45;5.00;;;3.00;;
14688;SDS011;7432;48.728;9.154;2022-10-16T04:07:12;3.20;;;3.00;;
14688;SDS011;7432;48.728;9.154;2022-10-16T04:09:38;3.17;;;2.83;;
14688;SDS011;7432;48.728;9.154;2022-10-16T04:12:04;3.93;;;2.87;;
14688;SDS011;7432;48.728;9.154;2022-10-16T04:14:31;4.93;;;2.63;;
14688;SDS011;7432;48.728;9.154;2022-10-16T04:16:59;4.13;;;2.50;;
14688;SDS011;7432;48.728;9.154;2022-10-16T04:19:25;2.70;;;2.50;;
14688;SDS011;7432;48.728;9.154;2022-10-16T04:21:51;3.73;;;2.70;;
14688;SDS011;7432;48.728;9.154;2022-10-16T04:24:18;4.17;;;2.50;;
14688;SDS011;7432;48.728;9.154;2022-10-16T04:26:44;3.07;;;2.33;;
14688;SDS011;7432;48.728;9.154;2022-10-16T04:29:11;2.80;;;2.60;;
14688;SDS011;7432;48.728;9.154;2022-10-16T04:31:37;3.00;;;2.80;;
14688;SDS011;7432;48.728;9.154;2022-10-16T04:34:05;3.47;;;2.83;;
14688;SDS011;7432;48.728;9.154;2022-10-16T04:36:31;2.93;;;2.67;;
14688;SDS011;7432;48.728;9.154;2022-10-16T04:38:57;3.00;;;2.80;;
14688;SDS011;7432;48.728;9.154;2022-10-16T04:41:24;3.07;;;2.50;;
14688;SDS011;7432;48.728;9.154;2022-10-16T04:43:50;2.83;;;2.40;;
14688;SDS011;7432;48.728;9.154;2022-10-16T04:46:17;3.33;;;2.97;;
14688;SDS011;7432;48.728;9.154;2022-10-16T04:48:43;6.23;;;5.63;;
14688;SDS011;7432;48.728;9.154;2022-10-16T04:51:11;8.67;;;6.70;;
14688;SDS011;7432;48.728;9.154;2022-10-16T04:53:37;7.77;;;7.03;;
14688;SDS011;7432;48.728;9.154;2022-10-16T04:56:04;7.47;;;6.77;;
14688;SDS011;7432;48.728;9.154;2022-10-16T04:58:31;8.93;;;8.03;;
14688;SDS011;7432;48.728;9.154;2022-10-16T05:00:58;12.80;;;8.30;;
14688;SDS011;7432;48.728;9.154;2022-10-16T05:03:24;8.47;;;7.67;;
14688;SDS011;7432;48.728;9.154;2022-10-16T05:05:50;8.90;;;8.00;;
14688;SDS011;7432;48.728;9.154;2022-10-16T05:08:18;9.37;;;7.20;;
14688;SDS011;7432;48.728;9.154;2022-10-16T05:10:45;7.20;;;6.50;;
14688;SDS011;7432;48.728;9.154;2022-10-16T05:13:11;6.47;;;5.87;;
14688;SDS011;7432;48.728;9.154;2022-10-16T05:15:38;6.27;;;5.70;;
14688;SDS011;7432;48.728;9.154;2022-10-16T05:18:05;5.93;;;5.43;;
14688;SDS011;7432;48.728;9.154;2022-10-16T05:20:31;5.33;;;4.60;;
14688;SDS011;7432;48.728;9.154;2022-10-16T05:22:58;4.50;;;4.10;;
14688;SDS011;7432;48.728;9.154;2022-10-16T05:25:25;3.90;;;3.50;;
14688;SDS011;7432;48.728;9.154;2022-10-16T05:27:52;3.80;;;3.43;;
14688;SDS011;7432;48.728;9.154;2022-10-16T05:30:18;4.10;;;3.00;;
14688;SDS011;7432;48.728;9.154;2022-10-16T05:32:48;4.40;;;3.13;;
14688;SDS011;7432;48.728;9.154;2022-10-16T05:35:16;3.27;;;3.07;;
14688;SDS011;7432;48.728;9.154;2022-10-16T05:37:43;4.00;;;3.70;;
14688;SDS011;7432;48.728;9.154;2022-10-16T05:40:09;3.90;;;3.50;;
14688;SDS011;7432;48.728;9.154;2022-10-16T05:42:38;3.53;;;3.13;;
14688;SDS011;7432;48.728;9.154;2022-10-16T05:45:05;4.43;;;3.57;;
14688;SDS011;7432;48.728;9.154;2022-10-16T05:47:32;4.40;;;3.30;;
14688;SDS011;7432;48.728;9.154;2022-10-16T05:49:59;3.50;;;3.20;;
14688;SDS011;7432;48.728;9.154;2022-10-16T05:52:26;3.90;;;3.60;;
14688;SDS011;7432;48.728;9.154;2022-10-16T05:54:52;3.93;;;3.20;;
14688;SDS011;7432;48.728;9.154;2022-10-16T05:57:19;3.03;;;2.83;;
14688;SDS011;7432;48.728;9.154;2022-10-16T05:59:47;3.90;;;3.60;;
14688;SDS011;7432;48.728;9.154;2022-10-16T06:02:13;3.10;;;2.90;;
14688;SDS011;7432;48.728;9.154;2022-10-16T06:04:40;3.83;;;3.00;;
14688;SDS011;7432;48.728;9.154;2022-10-16T06:07:06;2.97;;;2.77;;
14688;SDS011;7432;48.728;9.154;2022-10-16T06:09:33;3.80;;;3.37;;
14688;SDS011;7432;48.728;9.154;2022-10-16T06:11:59;3.90;;;3.10;;
14688;SDS011;7432;48.728;9.154;2022-10-16T06:14:26;3.57;;;3.30;;
14688;SDS011;7432;48.728;9.154;2022-10-16T06:16:54;3.10;;;2.90;;
14688;SDS011;7432;48.728;9.154;2022-10-16T06:19:20;3.70;;;2.87;;
14688;SDS011;7432;48.728;9.154;2022-10-16T06:21:47;2.90;;;2.70;;
14688;SDS011;7432;48.728;9.154;2022-10-16T06:24:14;3.43;;;3.23;;
14688;SDS011;7432;48.728;9.154;2022-10-16T06:26:40;7.50;;;3.10;;
14688;SDS011;7432;48.728;9.154;2022-10-16T06:29:08;6.23;;;3.20;;
14688;SDS011;7432;48.728;9.154;2022-10-16T06:31:34;4.30;;;3.63;;
14688;SDS011;7432;48.728;9.154;2022-10-16T06:34:02;3.53;;;3.13;;
14688;SDS011;7432;48.728;9.154;2022-10-16T06:36:30;3.60;;;3.40;;
14688;SDS011;7432;48.728;9.154;2022-10-16T06:38:57;3.60;;;3.30;;
14688;SDS011;7432;48.728;9.154;2022-10-16T06:41:23;5.73;;;3.00;;
14688;SDS011;7432;48.728;9.154;2022-10-16T06:43:50;3.77;;;3.13;;
14688;SDS011;7432;48.728;9.154;2022-10-16T06:46:17;4.43;;;3.03;;
14688;SDS011;7432;48.728;9.154;2022-10-16T06:48:46;6.57;;;3.37;;
14688;SDS011;7432;48.728;9.154;2022-10-16T06:51:14;4.53;;;3.90;;
14688;SDS011;7432;48.728;9.154;2022-10-16T06:53:43;3.90;;;3.60;;
14688;SDS011;7432;48.728;9.154;2022-10-16T06:56:12;3.60;;;3.40;;
14688;SDS011;7432;48.728;9.154;2022-10-16T06:58:41;3.97;;;3.67;;
14688;SDS011;7432;48.728;9.154;2022-10-16T07:01:08;2.93;;;2.73;;
14688;SDS011;7432;48.728;9.154;2022-10-16T07:03:36;3.77;;;3.30;;
14688;SDS011;7432;48.728;9.154;2022-10-16T07:06:03;3.33;;;3.10;;
14688;SDS011;7432;48.728;9.154;2022-10-16T07:08:32;4.67;;;3.10;;
14688;SDS011;7432;48.728;9.154;2022-10-16T07:10:59;3.60;;;3.10;;
14688;SDS011;7432;48.728;9.154;2022-10-16T07:13:26;3.50;;;3.20;;
14688;SDS011;7432;48.728;9.154;2022-10-16T07:15:53;3.07;;;2.87;;
14688;SDS011;7432;48.728;9.154;2022-10-16T07:18:19;3.70;;;3.30;;
14688;SDS011;7432;48.728;9.154;2022-10-16T07:20:46;3.47;;;3.17;;
14688;SDS011;7432;48.728;9.154;2022-10-16T07:23:13;4.90;;;3.47;;
14688;SDS011;7432;48.728;9.154;2022-10-16T07:25:40;3.93;;;3.63;;
14688;SDS011;7432;48.728;9.154;2022-10-16T07:28:07;4.23;;;3.80;;
14688;SDS011;7432;48.728;9.154;2022-10-16T07:30:34;4.17;;;3.87;;
14688;SDS011;7432;48.728;9.154;2022-10-16T07:33:01;4.87;;;3.60;;
14688;SDS011;7432;48.728;9.154;2022-10-16T07:35:27;4.50;;;3.73;;
14688;SDS011;7432;48.728;9.154;2022-10-16T07:37:54;3.70;;;3.40;;
14688;SDS011;7432;48.728;9.154;2022-10-16T07:40:20;6.30;;;3.30;;
14688;SDS011;7432;48.728;9.154;2022-10-16T07:42:48;4.10;;;3.00;;
14688;SDS011;7432;48.728;9.154;2022-10-16T07:45:14;3.47;;;3.27;;
14688;SDS011;7432;48.728;9.154;2022-10-16T07:47:41;3.27;;;2.97;;
14688;SDS011;7432;48.728;9.154;2022-10-16T07:50:07;3.57;;;3.13;;
14688;SDS011;7432;48.728;9.154;2022-10-16T07:52:34;3.73;;;3.43;;
14688;SDS011;7432;48.728;9.154;2022-10-16T07:55:00;4.33;;;3.30;;
14688;SDS011;7432;48.728;9.154;2022-10-16T07:57:28;3.50;;;3.30;;
14688;SDS011;7432;48.728;9.154;2022-10-16T07:59:56;3.43;;;3.23;;
14688;SDS011;7432;48.728;9.154;2022-10-16T08:02:22;3.50;;;3.20;;
14688;SDS011;7432;48.728;9.154;2022-10-16T08:04:49;4.00;;;3.50;;
14688;SDS011;7432;48.728;9.154;2022-10-16T08:07:15;5.00;;;3.40;;
14688;SDS011;7432;48.728;9.154;2022-10-16T08:09:41;3.83;;;3.33;;
14688;SDS011;7432;48.728;9.154;2022-10-16T08:12:08;4.67;;;2.97;;
14688;SDS011;7432;48.728;9.154;2022-10-16T08:14:35;3.43;;;3.17;;
14688;SDS011;7432;48.728;9.154;2022-10-16T08:17:03;3.60;;;3.30;;
14688;SDS011;7432;48.728;9.154;2022-10-16T08:19:30;4.60;;;3.17;;
14688;SDS011;7432;48.728;9.154;2022-10-16T08:21:59;3.83;;;3.20;;
14688;SDS011;7432;48.728;9.154;2022-10-16T08:24:25;3.47;;;3.17;;
14688;SDS011;7432;48.728;9.154;2022-10-16T08:26:53;3.60;;;3.30;;
14688;SDS011;7432;48.728;9.154;2022-10-16T08:29:19;3.20;;;2.97;;
14688;SDS011;7432;48.728;9.154;2022-10-16T08:31:45;3.67;;;3.30;;
14688;SDS011;7432;48.728;9.154;2022-10-16T08:34:13;4.20;;;3.50;;
14688;SDS011;7432;48.728;9.154;2022-10-16T08:36:40;3.70;;;3.50;;
14688;SDS011;7432;48.728;9.154;2022-10-16T08:39:06;4.40;;;4.00;;
14688;SDS011;7432;48.728;9.154;2022-10-16T08:44:32;3.37;;;3.17;;
14688;SDS011;7432;48.728;9.154;2022-10-16T08:47:12;4.00;;;3.13;;
14688;SDS011;7432;48.728;9.154;2022-10-16T08:49:47;3.70;;;3.40;;
14688;SDS011;7432;48.728;9.154;2022-10-16T08:52:21;4.10;;;3.77;;
14688;SDS011;7432;48.728;9.154;2022-10-16T08:54:49;3.97;;;3.43;;
14688;SDS011;7432;48.728;9.154;2022-10-16T08:57:22;3.97;;;3.60;;
14688;SDS011;7432;48.728;9.154;2022-10-16T08:59:51;3.90;;;3.60;;
14688;SDS011;7432;48.728;9.154;2022-10-16T09:02:23;4.10;;;3.80;;
14688;SDS011;7432;48.728;9.154;2022-10-16T09:04:56;3.63;;;3.30;;
14688;SDS011;7432;48.728;9.154;2022-10-16T09:07:38;3.53;;;3.23;;
14688;SDS011;7432;48.728;9.154;2022-10-16T09:10:21;8.23;;;3.83;;
14688;SDS011;7432;48.728;9.154;2022-10-16T09:13:01;4.53;;;3.38;;
14688;SDS011;7432;48.728;9.154;2022-10-16T09:15:40;4.28;;;3.30;;
14688;SDS011;7432;48.728;9.154;2022-10-16T09:18:15;6.60;;;4.15;;
14688;SDS011;7432;48.728;9.154;2022-10-16T09:20:51;5.20;;;4.13;;
14688;SDS011;7432;48.728;9.154;2022-10-16T09:23:26;3.97;;;3.67;;
14688;SDS011;7432;48.728;9.154;2022-10-16T09:25:54;4.22;;;3.88;;
14688;SDS011;7432;48.728;9.154;2022-10-16T09:28:22;4.40;;;4.00;;
14688;SDS011;7432;48.728;9.154;2022-10-16T09:30:49;4.35;;;4.05;;
14688;SDS011;7432;48.728;9.154;2022-10-16T09:33:17;4.45;;;4.15;;
14688;SDS011;7432;48.728;9.154;2022-10-16T09:35:45;4.40;;;4.20;;
14688;SDS011;7432;48.728;9.154;2022-10-16T09:38:24;4.30;;;4.00;;
14688;SDS011;7432;48.728;9.154;2022-10-16T09:40:53;5.07;;;4.47;;
14688;SDS011;7432;48.728;9.154;2022-10-16T09:43:21;9.50;;;4.57;;
14688;SDS011;7432;48.728;9.154;2022-10-16T09:45:55;4.78;;;4.40;;
14688;SDS011;7432;48.728;9.154;2022-10-16T09:48:23;5.47;;;4.47;;
14688;SDS011;7432;48.728;9.154;2022-10-16T09:50:56;4.57;;;4.28;;
14688;SDS011;7432;48.728;9.154;2022-10-16T09:53:25;4.70;;;4.30;;
14688;SDS011;7432;48.728;9.154;2022-10-16T09:56:03;5.57;;;4.70;;
14688;SDS011;7432;48.728;9.154;2022-10-16T09:58:31;5.03;;;4.20;;
14688;SDS011;7432;48.728;9.154;2022-10-16T10:00:58;6.18;;;4.40;;
14688;SDS011;7432;48.728;9.154;2022-10-16T10:03:30;4.75;;;4.35;;
14688;SDS011;7432;48.728;9.154;2022-10-16T10:06:01;4.65;;;4.45;;
14688;SDS011;7432;48.728;9.154;2022-10-16T10:08:34;5.35;;;4.68;;
14688;SDS011;7432;48.728;9.154;2022-10-16T10:11:01;5.90;;;4.40;;
14688;SDS011;7432;48.728;9.154;2022-10-16T10:13:27;4.93;;;4.57;;
14688;SDS011;7432;48.728;9.154;2022-10-16T10:15:54;5.25;;;4.75;;
14688;SDS011;7432;48.728;9.154;2022-10-16T10:18:21;5.75;;;5.13;;
14688;SDS011;7432;48.728;9.154;2022-10-16T10:20:56;5.18;;;4.88;;
14688;SDS011;7432;48.728;9.154;2022-10-16T10:23:25;5.70;;;5.35;;
14688;SDS011;7432;48.728;9.154;2022-10-16T10:25:55;5.07;;;4.78;;
14688;SDS011;7432;48.728;9.154;2022-10-16T10:28:41;5.35;;;4.95;;
14688;SDS011;7432;48.728;9.154;2022-10-16T10:31:24;6.18;;;5.78;;
14688;SDS011;7432;48.728;9.154;2022-10-16T10:33:58;5.00;;;4.60;;
14688;SDS011;7432;48.728;9.154;2022-10-16T10:36:32;5.10;;;4.70;;
14688;SDS011;7432;48.728;9.154;2022-10-16T10:39:01;5.90;;;4.68;;
14688;SDS011;7432;48.728;9.154;2022-10-16T10:41:41;5.10;;;4.80;;
14688;SDS011;7432;48.728;9.154;2022-10-16T10:44:22;4.93;;;4.53;;
14688;SDS011;7432;48.728;9.154;2022-10-16T10:47:00;5.00;;;4.70;;
14688;SDS011;7432;48.728;9.154;2022-10-16T10:49:40;5.40;;;4.90;;
14688;SDS011;7432;48.728;9.154;2022-10-16T10:52:20;5.00;;;4.50;;
14688;SDS011;7432;48.728;9.154;2022-10-16T10:55:03;5.40;;;4.90;;
14688;SDS011;7432;48.728;9.154;2022-10-16T10:57:45;5.10;;;4.70;;
14688;SDS011;7432;48.728;9.154;2022-10-16T11:00:27;5.25;;;4.80;;
14688;SDS011;7432;48.728;9.154;2022-10-16T11:02:58;5.60;;;4.90;;
14688;SDS011;7432;48.728;9.154;2022-10-16T11:05:41;5.15;;;4.82;;
14688;SDS011;7432;48.728;9.154;2022-10-16T11:08:11;5.20;;;4.90;;
14688;SDS011;7432;48.728;9.154;2022-10-16T11:10:46;4.72;;;4.43;;
14688;SDS011;7432;48.728;9.154;2022-10-16T11:13:21;5.57;;;5.28;;
14688;SDS011;7432;48.728;9.154;2022-10-16T11:15:55;5.13;;;4.80;;
14688;SDS011;7432;48.728;9.154;2022-10-16T11:18:24;5.95;;;5.20;;
14688;SDS011;7432;48.728;9.154;2022-10-16T11:20:57;5.90;;;5.40;;
14688;SDS011;7432;48.728;9.154;2022-10-16T11:23:29;5.47;;;5.10;;
14688;SDS011;7432;48.728;9.154;2022-10-16T11:26:02;5.82;;;5.43;;
14688;SDS011;7432;48.728;9.154;2022-10-16T11:28:34;11.10;;;8.95;;
14688;SDS011;7432;48.728;9.154;2022-10-16T11:31:08;5.47;;;5.18;;
14688;SDS011;7432;48.728;9.154;2022-10-16T11:33:39;5.50;;;5.10;;
14688;SDS011;7432;48.728;9.154;2022-10-16T11:36:11;5.38;;;4.97;;
14688;SDS011;7432;48.728;9.154;2022-10-16T11:38:43;5.72;;;5.22;;
14688;SDS011;7432;48.728;9.154;2022-10-16T11:41:20;6.18;;;5.60;;
14688;SDS011;7432;48.728;9.154;2022-10-16T11:43:56;6.00;;;5.50;;
14688;SDS011;7432;48.728;9.154;2022-10-16T11:46:32;5.75;;;5.45;;
14688;SDS011;7432;48.728;9.154;2022-10-16T11:49:03;6.68;;;6.07;;
14688;SDS011;7432;48.728;9.154;2022-10-16T11:51:38;5.60;;;5.20;;
14688;SDS011;7432;48.728;9.154;2022-10-16T11:54:08;6.13;;;5.72;;
14688;SDS011;7432;48.728;9.154;2022-10-16T11:56:47;5.72;;;5.43;;
14688;SDS011;7432;48.728;9.154;2022-10-16T11:59:19;5.70;;;5.35;;
14688;SDS011;7432;48.728;9.154;2022-10-16T12:01:55;5.47;;;5.18;;
14688;SDS011;7432;48.728;9.154;2022-10-16T12:04:27;6.00;;;5.50;;
14688;SDS011;7432;48.728;9.154;2022-10-16T12:06:59;6.00;;;5.50;;
14688;SDS011;7432;48.728;9.154;2022-10-16T12:09:31;5.32;;;5.03;;
14688;SDS011;7432;48.728;9.154;2022-10-16T12:12:00;4.97;;;4.68;;
14688;SDS011;7432;48.728;9.154;2022-10-16T12:14:36;5.38;;;5.07;;
14688;SDS011;7432;48.728;9.154;2022-10-16T12:19:57;5.43;;;5.03;;
14688;SDS011;7432;48.728;9.154;2022-10-16T12:22:24;5.40;;;5.00;;
14688;SDS011;7432;48.728;9.154;2022-10-16T12:24:54;5.60;;;5.20;;
14688;SDS011;7432;48.728;9.154;2022-10-16T12:27:22;6.10;;;5.70;;
14688;SDS011;7432;48.728;9.154;2022-10-16T12:29:55;6.15;;;5.78;;
14688;SDS011;7432;48.728;9.154;2022-10-16T12:32:28;5.97;;;5.50;;
14688;SDS011;7432;48.728;9.154;2022-10-16T12:34:57;5.60;;;4.93;;
14688;SDS011;7432;48.728;9.154;2022-10-16T12:37:25;5.45;;;4.90;;
14688;SDS011;7432;48.728;9.154;2022-10-16T12:39:54;5.35;;;4.97;;
14688;SDS011;7432;48.728;9.154;2022-10-16T12:42:23;5.75;;;5.43;;
14688;SDS011;7432;48.728;9.154;2022-10-16T12:45:00;5.80;;;5.30;;
14688;SDS011;7432;48.728;9.154;2022-10-16T12:47:38;5.30;;;5.00;;
14688;SDS011;7432;48.728;9.154;2022-10-16T12:50:26;5.10;;;4.80;;
14688;SDS011;7432;48.728;9.154;2022-10-16T12:52:57;5.70;;;5.30;;
14688;SDS011;7432;48.728;9.154;2022-10-16T12:55:24;5.38;;;4.93;;
14688;SDS011;7432;48.728;9.154;2022-10-16T13:00:48;5.60;;;5.20;;
14688;SDS011;7432;48.728;9.154;2022-10-16T13:03:32;5.70;;;5.40;;
14688;SDS011;7432;48.728;9.154;2022-10-16T13:06:23;5.90;;;5.40;;
14688;SDS011;7432;48.728;9.154;2022-10-16T13:09:02;5.60;;;5.10;;
14688;SDS011;7432;48.728;9.154;2022-10-16T13:11:55;5.00;;;4.63;;
14688;SDS011;7432;48.728;9.154;2022-10-16T13:17:39;5.20;;;4.80;;
14688;SDS011;7432;48.728;9.154;2022-10-16T13:20:14;5.05;;;4.63;;
14688;SDS011;7432;48.728;9.154;2022-10-16T13:22:48;5.72;;;4.80;;
14688;SDS011;7432;48.728;9.154;2022-10-16T13:25:27;5.22;;;4.82;;
14688;SDS011;7432;48.728;9.154;2022-10-16T13:28:05;5.00;;;4.70;;
14688;SDS011;7432;48.728;9.154;2022-10-16T13:30:34;5.40;;;5.00;;
14688;SDS011;7432;48.728;9.154;2022-10-16T13:33:10;5.10;;;4.80;;
14688;SDS011;7432;48.728;9.154;2022-10-16T13:35:47;5.65;;;5.25;;
14688;SDS011;7432;48.728;9.154;2022-10-16T13:38:16;5.22;;;4.82;;
14688;SDS011;7432;48.728;9.154;2022-10-16T13:40:51;6.00;;;5.40;;
14688;SDS011;7432;48.728;9.154;2022-10-16T13:43:19;5.50;;;5.20;;
14688;SDS011;7432;48.728;9.154;2022-10-16T13:45:54;5.78;;;5.38;;
14688;SDS011;7432;48.728;9.154;2022-10-16T13:48:23;5.25;;;4.85;;
14688;SDS011;7432;48.728;9.154;2022-10-16T13:51:00;5.50;;;5.20;;
14688;SDS011;7432;48.728;9.154;2022-10-16T13:53:29;5.65;;;5.20;;
14688;SDS011;7432;48.728;9.154;2022-10-16T13:55:56;5.15;;;4.85;;
14688;SDS011;7432;48.728;9.154;2022-10-16T13:58:25;5.25;;;4.88;;
14688;SDS011;7432;48.728;9.154;2022-10-16T14:00:55;5.57;;;5.07;;
14688;SDS011;7432;48.728;9.154;2022-10-16T14:03:24;6.07;;;5.60;;
14688;SDS011;7432;48.728;9.154;2022-10-16T14:05:52;5.43;;;5.00;;
14688;SDS011;7432;48.728;9.154;2022-10-16T14:08:21;5.47;;;5.18;;
14688;SDS011;7432;48.728;9.154;2022-10-16T14:10:50;5.30;;;5.00;;
14688;SDS011;7432;48.728;9.154;2022-10-16T14:13:19;5.20;;;4.90;;
14688;SDS011;7432;48.728;9.154;2022-10-16T14:15:51;5.07;;;4.78;;
14688;SDS011;7432;48.728;9.154;2022-10-16T14:18:20;5.45;;;4.97;;
14688;SDS011;7432;48.728;9.154;2022-10-16T14:20:49;5.60;;;5.20;;
14688;SDS011;7432;48.728;9.154;2022-10-16T14:23:19;5.32;;;4.93;;
14688;SDS011;7432;48.728;9.154;2022-10-16T14:25:47;5.30;;;5.00;;
14688;SDS011;7432;48.728;9.154;2022-10-16T14:28:15;6.00;;;5.40;;
14688;SDS011;7432;48.728;9.154;2022-10-16T14:30:50;5.47;;;5.07;;
14688;SDS011;7432;48.728;9.154;2022-10-16T14:33:20;5.55;;;5.05;;
14688;SDS011;7432;48.728;9.154;2022-10-16T14:36:00;5.50;;;5.10;;
14688;SDS011;7432;48.728;9.154;2022-10-16T14:38:29;5.53;;;5.15;;
14688;SDS011;7432;48.728;9.154;2022-10-16T14:40:56;7.85;;;5.72;;
14688;SDS011;7432;48.728;9.154;2022-10-16T14:43:26;6.07;;;5.70;;
14688;SDS011;7432;48.728;9.154;2022-10-16T14:45:58;6.18;;;5.70;;
14688;SDS011;7432;48.728;9.154;2022-10-16T14:48:24;6.05;;;5.70;;
14688;SDS011;7432;48.728;9.154;2022-10-16T14:50:51;6.50;;;5.97;;
14688;SDS011;7432;48.728;9.154;2022-10-16T14:53:19;6.07;;;5.68;;
14688;SDS011;7432;48.728;9.154;2022-10-16T14:55:45;8.52;;;6.07;;
14688;SDS011;7432;48.728;9.154;2022-10-16T14:58:13;6.55;;;5.88;;
14688;SDS011;7432;48.728;9.154;2022-10-16T15:00:42;6.30;;;5.90;;
14688;SDS011;7432;48.728;9.154;2022-10-16T15:03:08;5.68;;;5.38;;
14688;SDS011;7432;48.728;9.154;2022-10-16T15:05:34;5.80;;;5.40;;
14688;SDS011;7432;48.728;9.154;2022-10-16T15:08:01;6.28;;;5.68;;
14688;SDS011;7432;48.728;9.154;2022-10-16T15:10:31;6.20;;;5.80;;
14688;SDS011;7432;48.728;9.154;2022-10-16T15:13:11;6.53;;;6.10;;
14688;SDS011;7432;48.728;9.154;2022-10-16T15:15:39;6.00;;;5.70;;
14688;SDS011;7432;48.728;9.154;2022-10-16T15:18:08;6.63;;;6.15;;
14688;SDS011;7432;48.728;9.154;2022-10-16T15:20:35;6.10;;;5.70;;
14688;SDS011;7432;48.728;9.154;2022-10-16T15:23:04;5.97;;;5.68;;
14688;SDS011;7432;48.728;9.154;2022-10-16T15:25:34;6.40;;;6.00;;
14688;SDS011;7432;48.728;9.154;2022-10-16T15:28:04;6.35;;;5.85;;